• Join FlightAware (Why Join?)
  • Login
  • US Flag 
09:23PM EDT


 

Airport Tracker/Info


-or-


 

Live Flight TrackerFlight Track Log ✈ N392ES ✈ 20-May-2013 ✈ KABE - KLDJ

Flight Track Log - Related Links

Times and Time Zones

All times are in EDT time to prevent confusion due to time zone crossing. See the N392ES flight status page for this flight to view local times or setup timezone preferences in your user account.

Time Position Orientation Groundspeed Altitude Reporting Facility
EDT Latitude Longitude Course Direction KTS MPH feet Rate Location/Type
01:38PM 40.7058 -75.4064 108° East  Level FlightAware Approximate
01:39PM 40.7004 -75.3850 108° East  Level FlightAware Approximate
01:40PM 40.7000 -75.3625 90° East  Level FlightAware Approximate
01:41PM 40.7000 -75.3399 90° East  Level FlightAware Approximate
01:42PM 40.6962 -75.3182 108° East  Level FlightAware Approximate
01:43PM 40.6909 -75.2967 108° East  Level FlightAware Approximate
01:44PM 40.6855 -75.2753 108° East  Level FlightAware Approximate
01:45PM 40.6802 -75.2539 108° East  Level FlightAware Approximate
01:45PM 40.6167 -75.1167 102° East 135 155 4,900  Level New York TRACON
01:46PM 40.6748 -75.2324 108° East  Level FlightAware Approximate
01:47PM 40.6695 -75.2110 108° East  Level FlightAware Approximate
01:47PM 40.6167 -75.0833 90° East 124 143 5,000  Level New York TRACON
01:48PM 40.6641 -75.1896 108° East  Level FlightAware Approximate
01:48PM 40.6000 -75.0333 114° Southeast 127 146 5,000  Level New York TRACON
01:48PM 40.6000 -75.0000 90° East 127 146 5,000  Level New York TRACON
01:49PM 40.6587 -75.1682 108° East  Level FlightAware Approximate
01:50PM 40.6534 -75.1468 108° East  Level FlightAware Approximate
01:50PM 40.5833 -74.9500 114° Southeast 124 143 5,000  Level New York TRACON
01:51PM 40.6486 -75.1251 102° East  Level FlightAware Approximate
01:51PM 40.5667 -74.9000 114° Southeast 122 140 5,000  Level New York TRACON
01:51PM 40.5500 -74.8667 123° Southeast 129 148 4,500 -600 Descending New York TRACON
01:53PM 40.5500 -74.8167 90° East 139 160 3,800 -660 Descending New York TRACON
01:54PM 40.5500 -74.7667 90° East 129 148 3,200 -300 Descending New York TRACON
01:56PM 40.5333 -74.7000 108° East 115 132 2,900 -60 Descending New York TRACON
01:57PM 40.5167 -74.6500 114° Southeast 126 145 3,100 1,380 Climbing New York TRACON
01:58PM 40.5167 -74.6167 90° East 124 143 5,700 -300 Climbing New York TRACON
01:59PM 40.5000 -74.5667 114° Southeast 133 153 2,500 -240 Descending New York TRACON
02:00PM 40.4833 -74.5333 123° Southeast 125 144 5,300 -360 Climbing New York TRACON
02:00PM 40.4833 -74.5000 90° East 116 133 1,900 -1,740 Descending New York TRACON
02:01PM 40.4667 -74.4500 114° Southeast 123 142 2,100  Climbing New York TRACON
02:02PM 40.4667 -74.4167 90° East 116 133 2,000 -120 Descending New York TRACON
02:03PM 40.4667 -74.3667 90° East 126 145 1,900 -180 Descending New York TRACON
02:04PM 40.5000 -74.3667 360° North 98 113 1,700 -240 Descending New York TRACON
02:05PM 40.5333 -74.3500 21° North 99 114 1,500 -240 Descending New York TRACON
02:07PM 40.5569 -74.3170 47° Northeast  Level FlightAware Approximate
02:14PM 40.6167 -74.2333 48° Northeast  Level FlightAware Approximate
02:15PM 40.6174 -74.2446 48° Northeast  Level Estimated
02:16PM 40.6174 -74.2446 48° Northeast  Level Estimated
02:17PM 40.6174 -74.2446 48° Northeast  Level Estimated